Dublin, IN (47335)

7:31 AM EDT on August 25, 2016 (GMT -0400)
Fairholme Farms | | Change Station

Elev 1050 ft 39.79 °N, 85.35 °W | Updated 12 minutes ago

Heavy Rain
Heavy Rain Mist
73.7 °F
Feels Like 73.7 °F
N
0.0
Wind Variable Wind from SW
Gusts 0.0 mph

Today
High -- | Low -- °F
--% Chance of Precip.
Yesterday
High -- | Low -- °F
Precip. -- in
Pressure 30.08 in
Visibility 3.0 miles
Clouds Mostly Cloudy 800 ft
Overcast 1600 ft
Dew Point 73 °F
Humidity 98%
Rainfall 0.07 in
Snow Depth Not available.
7:02 AM 8:22 PM
Waning Gibbous, 46% visible
SPECI KMIE 251124Z 01006KT 3SM +RA BR BKN008 OVC016 23/22 A3008 RMK AO2 LTG DSNT N-E TSB1057E18 CIG 005V011 P0012 T02330222
Pressure 30.08 in
Visibility 3.0 miles
Clouds Mostly Cloudy 800 ft
Overcast 1600 ft
Dew Point 73 °F
Humidity 98%
Rainfall 0.07 in
Snow Depth Not available.
7:02 AM 8:22 PM
Waning Gibbous, 46% visible
SPECI KMIE 251124Z 01006KT 3SM +RA BR BKN008 OVC016 23/22 A3008 RMK AO2 LTG DSNT N-E TSB1057E18 CIG 005V011 P0012 T02330222

10-Day Weather Forecast

Almanac

Astronomy

Aug. 25, 2016 Rise Set
Actual Time
Civil Twilight
Nautical Twilight
Astronomical Twilight
Moon
Length of Visible Light
Length of Day
Tomorrow will be .
, % of the Moon is Illuminated

Today's Extremes

State Highs State Lows

Community

WunderPhotos

Upload Photos

1,934,822 photos uploaded!

WunderBlog® & News

Nearby

Air Quality

  Air Quality AQ Index Pollutant
Not available.

Snow Depth

Station Depth Elevation

Earthquake Activity

City Distance Mag. Time & Date
Minimum magnitude displayed is 2.5.

Coastal Water Temperatures

Place Temperature

Stations

Nearby Weather Stations

Station Location Temp. Windchill Dew Point Humidity Wind Precip. Elev Updated Type
                   

Watches & Warnings

There are currently no watches in effect.